Airfield :
LOGIN :

Register | Disclaimer

   EN    FR    IT 

 










Legend :    VFR   Marginal VFR   IFR   Intensive IFR   Very Intensive IFR
Visi :
Ceiling :
>= 8 km
>= 3000ft
5 to 8 km
1000 to 3000 ft
1500m to 5 km
500 to 1000 ft
800 to 1500m
200 to 500 ft
< 800m
< 200 ft
Symbols :   Thunderstorms  Fog  Heavy snow  Heavy precipitations  Wind > 20 kt
SIGMETs :     Misc.  Thunderstorms  Icing  Turbulence  Mountain Waves  Volcanic Ashes







- Airport Elevation : 637 ft
- IATA code : MVQ


UMOO - Mogilev

CURRENT METAR :
  • 230700Z 14003MPS 6000 NSC M12/M12 Q1016 R13/720424 NOSIG

EXPIRED METARs :
  • 230600Z 15005MPS 7000 NSC M10/M11 Q1016 R13/720424 NOSIG
  • 230500Z 14003MPS 8000 BKN044 M08/M09 Q1016 NOSIG

TAF TAF UMOO
Valid from the 23 at 06:00 until the 23 at 15:00 UTC


230500Z 2306/2315 13005MPS 6000 BKN012
TEMPO 2306/2309 11006MPS 1300 SHSN BR BKN004 SCT015CB
TEMPO 2309/2315 10006MPS 2100 -SHSN BR BKN005 SCT015CB
No reported NOTAMs for that airfield.



MET'MAP, your aeronautical weather chart ! - Copyright ORBIFLY December 2007 - Disclaimer

ORBIFLY MET'MAP TEAM :

Programming & Development : Alexandra Zaïnal
Concept & Development : Baudouin d'Aumeries
Co-Development & Prog : Marc-Olivier Méhu
Technical & hardware support : Manuel Goepfert

Contact : metmap@orbifly.com




SOURCES & CREDITS :

   NOAA